createdAt,value
2018-04-01T00:01:22.156Z,4.67
2018-04-01T00:03:48.478Z,4.77
2018-04-01T00:06:14.820Z,4.30
2018-04-01T00:08:41.202Z,4.10
2018-04-01T00:11:07.575Z,5.03
2018-04-01T00:13:33.978Z,5.73
2018-04-01T00:16:00.459Z,6.47
2018-04-01T00:18:26.964Z,5.63
2018-04-01T00:20:53.375Z,4.50
2018-04-01T00:23:19.706Z,5.20
2018-04-01T00:25:46.085Z,3.50
2018-04-01T00:28:12.495Z,4.00
2018-04-01T00:30:38.918Z,5.63
2018-04-01T00:33:05.314Z,7.03
2018-04-01T00:35:31.666Z,4.40
2018-04-01T00:37:58.041Z,4.73
2018-04-01T00:40:24.476Z,5.67
2018-04-01T00:42:50.940Z,4.03
2018-04-01T00:45:17.351Z,4.80
2018-04-01T00:47:44.009Z,4.10
2018-04-01T00:50:10.347Z,6.53
2018-04-01T00:52:36.673Z,5.33
2018-04-01T00:55:03.078Z,4.50
2018-04-01T00:57:29.432Z,5.03
2018-04-01T00:59:55.837Z,3.47
2018-04-01T01:02:22.162Z,5.50
2018-04-01T01:04:48.513Z,5.30
2018-04-01T01:07:14.875Z,3.43
2018-04-01T01:09:41.187Z,4.47
2018-04-01T01:12:07.758Z,3.63
2018-04-01T01:14:34.277Z,3.60
2018-04-01T01:17:00.610Z,5.80
2018-04-01T01:19:26.927Z,3.77
2018-04-01T01:21:53.336Z,5.10
2018-04-01T01:24:19.673Z,4.40
2018-04-01T01:26:46.058Z,5.23
2018-04-01T01:29:12.401Z,3.97
2018-04-01T01:31:38.772Z,5.00
2018-04-01T01:34:05.106Z,3.50
2018-04-01T01:36:31.437Z,5.70
2018-04-01T01:38:57.799Z,5.10
2018-04-01T01:41:24.237Z,4.10
2018-04-01T01:43:50.598Z,4.23
2018-04-01T01:46:16.963Z,4.13
2018-04-01T01:48:43.320Z,3.70
2018-04-01T01:51:09.762Z,4.17
2018-04-01T01:53:36.204Z,3.77
2018-04-01T01:56:02.558Z,3.77
2018-04-01T01:58:28.928Z,3.20
2018-04-01T02:00:55.295Z,3.37
2018-04-01T02:03:21.630Z,5.43
2018-04-01T02:05:48.026Z,4.10
2018-04-01T02:08:14.379Z,3.97
2018-04-01T02:10:40.721Z,4.13
2018-04-01T02:13:07.047Z,4.00
2018-04-01T02:15:33.378Z,5.20
2018-04-01T02:17:59.741Z,4.40
2018-04-01T02:20:26.074Z,4.23
2018-04-01T02:22:52.478Z,3.43
2018-04-01T02:25:18.819Z,3.80
2018-04-01T02:27:45.178Z,3.10
2018-04-01T02:30:11.532Z,3.17
2018-04-01T02:32:37.910Z,3.70
2018-04-01T02:35:04.237Z,5.03
2018-04-01T02:37:30.608Z,6.00
2018-04-01T02:39:57.000Z,3.67
2018-04-01T02:42:23.374Z,3.20
2018-04-01T02:44:49.696Z,2.87
2018-04-01T02:47:16.036Z,3.10
2018-04-01T02:49:42.397Z,3.20
2018-04-01T02:52:08.767Z,3.40
2018-04-01T02:54:35.099Z,3.97
2018-04-01T02:57:01.464Z,4.93
2018-04-01T02:59:27.795Z,3.30
2018-04-01T03:01:54.183Z,3.73
2018-04-01T03:04:20.521Z,3.43
2018-04-01T03:06:46.882Z,3.53
2018-04-01T03:09:13.210Z,3.80
2018-04-01T03:11:39.537Z,3.40
2018-04-01T03:14:05.887Z,3.30
2018-04-01T03:16:32.274Z,3.20
2018-04-01T03:18:58.603Z,3.63
2018-04-01T03:21:24.982Z,3.30
2018-04-01T03:23:51.298Z,3.63
2018-04-01T03:26:17.674Z,4.07
2018-04-01T03:28:44.061Z,3.90
2018-04-01T03:31:10.441Z,5.60
2018-04-01T03:33:36.801Z,2.90
2018-04-01T03:36:03.142Z,4.27
2018-04-01T03:38:29.450Z,3.50
2018-04-01T03:40:55.830Z,3.13
2018-04-01T03:43:22.213Z,3.30
2018-04-01T03:45:48.560Z,3.20
2018-04-01T03:48:14.886Z,3.10
2018-04-01T03:50:41.243Z,3.03
2018-04-01T03:53:07.609Z,2.70
2018-04-01T03:55:34.018Z,2.87
2018-04-01T03:58:00.346Z,2.80
2018-04-01T04:00:26.747Z,3.43
2018-04-01T04:02:53.145Z,3.10
2018-04-01T04:05:19.484Z,3.10
2018-04-01T04:07:45.812Z,2.77
2018-04-01T04:10:12.173Z,3.17
2018-04-01T04:12:38.490Z,3.10
2018-04-01T04:15:04.844Z,3.20
2018-04-01T04:17:31.221Z,3.17
2018-04-01T04:19:58.604Z,2.83
2018-04-01T04:22:24.927Z,3.40
2018-04-01T04:24:51.259Z,3.10
2018-04-01T04:27:17.613Z,2.73
2018-04-01T04:29:43.930Z,3.00
2018-04-01T04:32:10.286Z,3.90
2018-04-01T04:34:36.698Z,3.37
2018-04-01T04:37:03.055Z,3.50
2018-04-01T04:39:29.365Z,3.00
2018-04-01T04:41:55.735Z,3.23
2018-04-01T04:44:22.062Z,3.17
2018-04-01T04:46:48.418Z,2.50
2018-04-01T04:49:14.817Z,3.23
2018-04-01T04:51:41.140Z,3.00
2018-04-01T04:54:07.482Z,3.67
2018-04-01T04:56:33.858Z,3.17
2018-04-01T04:59:00.238Z,2.70
2018-04-01T05:01:26.596Z,3.50
2018-04-01T05:03:52.921Z,3.07
2018-04-01T05:06:19.246Z,3.27
2018-04-01T05:08:45.569Z,2.40
2018-04-01T05:11:11.937Z,4.43
2018-04-01T05:13:38.333Z,3.37
2018-04-01T05:16:04.641Z,3.10
2018-04-01T05:18:30.962Z,3.13
2018-04-01T05:20:57.280Z,2.70
2018-04-01T05:23:23.732Z,2.90
2018-04-01T05:25:50.076Z,3.27
2018-04-01T05:28:16.536Z,2.83
2018-04-01T05:30:42.864Z,3.60
2018-04-01T05:33:09.188Z,3.40
2018-04-01T05:35:35.547Z,2.43
2018-04-01T05:38:01.939Z,2.60
2018-04-01T05:40:28.333Z,2.87
2018-04-01T05:42:54.739Z,2.50
2018-04-01T05:45:21.091Z,2.90
2018-04-01T05:47:47.429Z,3.60
2018-04-01T05:50:14.773Z,2.90
2018-04-01T05:52:41.159Z,4.23
2018-04-01T05:55:07.534Z,3.30
2018-04-01T05:57:33.873Z,2.90
2018-04-01T06:00:00.215Z,2.73
2018-04-01T06:02:26.639Z,3.07
2018-04-01T06:04:53.010Z,3.10
2018-04-01T06:07:19.321Z,3.93
2018-04-01T06:09:45.649Z,4.13
2018-04-01T06:12:12.158Z,3.67
2018-04-01T06:14:38.653Z,2.50
2018-04-01T06:17:04.961Z,2.90
2018-04-01T06:19:31.375Z,2.80
2018-04-01T06:21:57.694Z,3.30
2018-04-01T06:24:24.005Z,3.00
2018-04-01T06:26:50.365Z,6.40
2018-04-01T06:29:16.703Z,3.03
2018-04-01T06:31:43.130Z,3.63
2018-04-01T06:34:09.445Z,9.77
2018-04-01T06:36:35.847Z,18.93
2018-04-01T06:39:02.162Z,7.23
2018-04-01T06:41:28.543Z,14.83
2018-04-01T06:43:54.966Z,30.97
2018-04-01T06:46:21.354Z,41.60
2018-04-01T06:48:47.709Z,31.33
2018-04-01T06:51:14.100Z,28.23
2018-04-01T06:53:40.565Z,27.13
2018-04-01T06:56:06.958Z,41.97
2018-04-01T06:58:33.377Z,37.93
2018-04-01T07:00:59.693Z,23.97
2018-04-01T07:03:26.057Z,30.97
2018-04-01T07:05:52.374Z,17.43
2018-04-01T07:08:18.725Z,17.93
2018-04-01T07:10:45.056Z,17.77
2018-04-01T07:13:11.440Z,19.97
2018-04-01T07:15:37.947Z,23.27
2018-04-01T07:18:04.311Z,36.70
2018-04-01T07:20:31.693Z,14.73
2018-04-01T07:22:58.020Z,19.57
2018-04-01T07:25:24.395Z,25.93
2018-04-01T07:27:50.765Z,21.40
2018-04-01T07:30:20.443Z,23.10
2018-04-01T07:32:46.858Z,36.67
2018-04-01T07:35:13.391Z,24.40
2018-04-01T07:37:39.735Z,27.87
2018-04-01T07:40:06.146Z,22.30
2018-04-01T07:42:32.481Z,29.30
2018-04-01T07:44:58.862Z,23.10
2018-04-01T07:47:25.255Z,28.73
2018-04-01T07:49:51.615Z,15.90
2018-04-01T07:52:18.021Z,15.73
2018-04-01T07:54:44.354Z,20.00
2018-04-01T07:57:10.697Z,21.77
2018-04-01T07:59:37.161Z,28.27
2018-04-01T08:02:03.646Z,21.23
2018-04-01T08:04:29.978Z,24.60
2018-04-01T08:06:56.646Z,17.20
2018-04-01T08:09:23.086Z,25.97
2018-04-01T08:11:49.582Z,24.73
2018-04-01T08:14:15.958Z,26.17
2018-04-01T08:16:42.382Z,21.10
2018-04-01T08:19:08.769Z,18.63
2018-04-01T08:21:35.101Z,24.23
2018-04-01T08:24:01.522Z,35.53
2018-04-01T08:26:27.919Z,26.77
2018-04-01T08:28:55.407Z,26.70
2018-04-01T08:31:21.940Z,27.87
2018-04-01T08:33:49.393Z,28.20
2018-04-01T08:36:15.786Z,29.13
2018-04-01T08:41:14.562Z,22.37
2018-04-01T08:43:40.932Z,27.20
2018-04-01T08:46:07.314Z,26.60
2018-04-01T08:48:33.722Z,27.00
2018-04-01T08:51:00.062Z,27.47
2018-04-01T08:53:26.625Z,27.63
2018-04-01T08:55:53.023Z,23.83
2018-04-01T08:58:19.437Z,22.80
2018-04-01T09:00:45.843Z,25.63
2018-04-01T09:03:12.211Z,29.97
2018-04-01T09:05:38.606Z,22.03
2018-04-01T09:08:05.006Z,31.60
2018-04-01T09:10:32.459Z,26.73
2018-04-01T09:12:58.781Z,29.03
2018-04-01T09:15:25.206Z,28.90
2018-04-01T09:17:51.568Z,33.47
2018-04-01T09:20:18.009Z,23.80
2018-04-01T09:22:44.406Z,24.77
2018-04-01T09:25:10.745Z,26.80
2018-04-01T09:27:37.273Z,22.40
2018-04-01T09:30:03.760Z,29.47
2018-04-01T09:32:30.105Z,35.83
2018-04-01T09:34:56.677Z,25.00
2018-04-01T09:37:23.176Z,28.30
2018-04-01T09:39:49.543Z,26.10
2018-04-01T09:42:15.863Z,23.97
2018-04-01T09:44:42.191Z,26.30
2018-04-01T09:47:08.725Z,25.70
2018-04-01T09:49:35.063Z,25.30
2018-04-01T09:52:01.381Z,23.90
2018-04-01T09:54:27.777Z,25.60
2018-04-01T09:56:54.192Z,23.90
2018-04-01T09:59:20.570Z,22.97
2018-04-01T10:01:46.979Z,34.70
2018-04-01T10:04:13.366Z,21.87
2018-04-01T10:06:39.715Z,29.40
2018-04-01T10:09:06.106Z,29.20
2018-04-01T10:11:32.513Z,21.37
2018-04-01T10:13:58.899Z,19.33
2018-04-01T10:16:25.336Z,20.03
2018-04-01T10:18:51.692Z,30.43
2018-04-01T10:21:18.069Z,26.03
2018-04-01T10:23:44.425Z,23.23
2018-04-01T10:26:10.909Z,24.37
2018-04-01T10:28:37.308Z,26.80
2018-04-01T10:31:03.627Z,22.37
2018-04-01T10:33:30.001Z,22.00
2018-04-01T10:35:56.482Z,21.40
2018-04-01T10:38:22.988Z,20.77
2018-04-01T10:40:49.370Z,22.57
2018-04-01T10:43:16.787Z,19.47
2018-04-01T10:45:43.225Z,17.30
2018-04-01T10:48:09.599Z,19.37
2018-04-01T10:50:35.931Z,22.03
2018-04-01T10:53:02.398Z,31.30
2018-04-01T10:55:28.791Z,23.17
2018-04-01T10:57:55.125Z,21.90
2018-04-01T11:00:21.504Z,19.30
2018-04-01T11:02:47.906Z,19.50
2018-04-01T11:05:14.257Z,20.83
2018-04-01T11:07:40.661Z,25.63
2018-04-01T11:10:07.002Z,17.17
2018-04-01T11:12:33.378Z,17.73
2018-04-01T11:14:59.745Z,17.30
2018-04-01T11:17:26.181Z,26.03
2018-04-01T11:19:52.551Z,18.73
2018-04-01T11:22:19.034Z,20.27
2018-04-01T11:24:45.526Z,18.00
2018-04-01T11:27:11.918Z,13.00
2018-04-01T11:29:38.334Z,13.27
2018-04-01T11:32:04.664Z,19.97
2018-04-01T11:34:31.015Z,12.80
2018-04-01T11:36:57.338Z,14.27
2018-04-01T11:39:23.700Z,14.30
2018-04-01T11:41:50.052Z,18.53
2018-04-01T11:44:16.377Z,18.70
2018-04-01T11:46:42.689Z,23.43
2018-04-01T11:49:09.136Z,22.93
2018-04-01T11:51:35.609Z,23.73
2018-04-01T11:54:02.010Z,25.97
2018-04-01T11:56:28.354Z,28.43
2018-04-01T11:58:54.789Z,29.03
2018-04-01T12:01:21.126Z,21.70
2018-04-01T12:03:47.455Z,23.47
2018-04-01T12:06:13.827Z,28.13
2018-04-01T12:08:40.221Z,27.83
2018-04-01T12:11:06.595Z,26.13
2018-04-01T12:13:32.921Z,28.20
2018-04-01T12:15:59.263Z,46.03
2018-04-01T12:18:25.730Z,30.57
2018-04-01T12:20:52.109Z,52.23
2018-04-01T12:23:18.461Z,40.13
2018-04-01T12:25:44.844Z,54.93
2018-04-01T12:28:11.167Z,46.60
2018-04-01T12:30:38.134Z,44.60
2018-04-01T12:33:04.496Z,43.53
2018-04-01T12:35:30.870Z,49.63
2018-04-01T12:37:57.214Z,60.97
2018-04-01T12:40:23.601Z,48.00
2018-04-01T12:42:49.923Z,45.70
2018-04-01T12:45:16.282Z,50.30
2018-04-01T12:47:42.618Z,51.77
2018-04-01T12:50:08.978Z,48.13
2018-04-01T12:52:35.313Z,58.47
2018-04-01T12:55:01.647Z,41.27
2018-04-01T12:57:28.044Z,46.37
2018-04-01T12:59:54.497Z,42.23
2018-04-01T13:02:20.829Z,49.30
2018-04-01T13:04:47.198Z,42.70
2018-04-01T13:07:13.619Z,45.13
2018-04-01T13:09:39.941Z,38.27
2018-04-01T13:12:06.301Z,52.00
2018-04-01T13:14:32.661Z,48.83
2018-04-01T13:16:58.988Z,47.73
2018-04-01T13:19:25.472Z,47.87
2018-04-01T13:21:51.899Z,34.90
2018-04-01T13:24:18.329Z,41.03
2018-04-01T13:26:44.719Z,39.83
2018-04-01T13:29:11.107Z,47.03
2018-04-01T13:31:37.562Z,59.73
2018-04-01T13:34:03.938Z,39.93
2018-04-01T13:36:30.265Z,37.90
2018-04-01T13:38:56.658Z,50.00
2018-04-01T13:41:23.042Z,40.23
2018-04-01T13:43:49.408Z,38.27
2018-04-01T13:46:15.750Z,40.93
2018-04-01T13:48:42.260Z,35.40
2018-04-01T13:51:08.665Z,45.33
2018-04-01T13:53:35.006Z,33.13
2018-04-01T13:56:01.354Z,34.23
2018-04-01T13:58:27.678Z,37.47
2018-04-01T14:00:54.075Z,36.00
2018-04-01T14:03:20.417Z,34.23
2018-04-01T14:05:46.771Z,28.07
2018-04-01T14:08:13.092Z,32.00
2018-04-01T14:10:39.480Z,26.37
2018-04-01T14:13:05.938Z,30.27
2018-04-01T14:15:32.278Z,26.80
2018-04-01T14:17:58.667Z,28.43
2018-04-01T14:20:25.186Z,25.17
2018-04-01T14:22:51.525Z,34.13
2018-04-01T14:25:17.924Z,28.50
2018-04-01T14:27:44.267Z,33.20
2018-04-01T14:30:10.599Z,21.97
2018-04-01T14:32:36.925Z,29.43
2018-04-01T14:35:03.299Z,30.70
2018-04-01T14:37:29.725Z,27.37
2018-04-01T14:39:56.055Z,25.57
2018-04-01T14:42:22.413Z,28.30
2018-04-01T14:44:48.757Z,23.23
2018-04-01T14:47:15.602Z,27.00
2018-04-01T14:49:42.484Z,32.93
2018-04-01T14:52:08.854Z,29.60
2018-04-01T14:54:35.281Z,24.57
2018-04-01T14:57:01.682Z,24.10
2018-04-01T14:59:28.091Z,19.00
2018-04-01T15:01:54.442Z,19.43
2018-04-01T15:04:20.757Z,27.73
2018-04-01T15:06:47.146Z,19.60
2018-04-01T15:09:13.474Z,26.00
2018-04-01T15:11:39.852Z,20.97
2018-04-01T15:14:06.229Z,18.60
2018-04-01T15:16:32.582Z,19.90
2018-04-01T15:18:58.934Z,22.80
2018-04-01T15:21:25.313Z,20.83
2018-04-01T15:23:51.660Z,23.43
2018-04-01T15:26:18.014Z,18.13
2018-04-01T15:28:44.380Z,21.50
2018-04-01T15:31:10.758Z,18.80
2018-04-01T15:33:37.115Z,18.30
2018-04-01T15:36:03.441Z,22.27
2018-04-01T15:38:29.768Z,18.20
2018-04-01T15:40:56.167Z,18.90
2018-04-01T15:43:22.543Z,19.97
2018-04-01T15:45:48.926Z,19.00
2018-04-01T15:48:15.277Z,17.33
2018-04-01T15:50:41.610Z,21.60
2018-04-01T15:53:07.987Z,16.30
2018-04-01T15:55:34.386Z,17.13
2018-04-01T15:58:00.723Z,19.67
2018-04-01T16:00:27.037Z,19.13
2018-04-01T16:02:53.355Z,14.10
2018-04-01T16:05:19.696Z,15.47
2018-04-01T16:07:46.130Z,16.20
2018-04-01T16:10:12.566Z,17.93
2018-04-01T16:12:38.971Z,16.97
2018-04-01T16:15:05.369Z,18.10
2018-04-01T16:17:31.747Z,16.10
2018-04-01T16:19:58.118Z,10.60
2018-04-01T16:22:24.484Z,18.37
2018-04-01T16:24:50.883Z,23.13
2018-04-01T16:27:17.282Z,14.20
2018-04-01T16:29:43.734Z,13.53
2018-04-01T16:32:10.122Z,17.90
2018-04-01T16:34:36.509Z,14.93
2018-04-01T16:37:02.877Z,16.80
2018-04-01T16:39:29.318Z,13.60
2018-04-01T16:41:55.769Z,16.83
2018-04-01T16:44:22.155Z,13.00
2018-04-01T16:46:48.524Z,13.90
2018-04-01T16:49:14.894Z,16.40
2018-04-01T16:51:41.280Z,15.90
2018-04-01T16:54:07.714Z,17.23
2018-04-01T16:56:34.288Z,11.53
2018-04-01T16:59:00.761Z,17.03
2018-04-01T17:01:27.154Z,15.70
2018-04-01T17:03:53.592Z,15.17
2018-04-01T17:06:20.011Z,12.63
2018-04-01T17:08:46.446Z,16.60
2018-04-01T17:11:12.953Z,16.33
2018-04-01T17:13:39.341Z,24.30
2018-04-01T17:16:05.752Z,16.00
2018-04-01T17:18:32.122Z,15.00
2018-04-01T17:20:58.511Z,11.90
2018-04-01T17:23:24.944Z,16.90
2018-04-01T17:25:51.376Z,12.07
2018-04-01T17:28:17.786Z,10.70
2018-04-01T17:30:44.206Z,12.13
2018-04-01T17:33:10.576Z,12.20
2018-04-01T17:35:36.960Z,15.00
2018-04-01T17:38:03.364Z,14.27
2018-04-01T17:40:29.805Z,9.60
2018-04-01T17:42:56.252Z,10.53
2018-04-01T17:45:22.618Z,14.27
2018-04-01T17:47:48.982Z,12.80
2018-04-01T17:50:15.351Z,10.10
2018-04-01T17:52:41.946Z,14.50
2018-04-01T17:55:08.542Z,10.47
2018-04-01T17:57:34.916Z,7.93
2018-04-01T18:00:01.291Z,13.57
2018-04-01T18:02:27.687Z,11.73
2018-04-01T18:04:54.066Z,9.43
2018-04-01T18:07:20.452Z,8.67
2018-04-01T18:09:46.835Z,11.47
2018-04-01T18:12:13.254Z,9.53
2018-04-01T18:14:39.730Z,15.33
2018-04-01T18:17:06.131Z,7.20
2018-04-01T18:19:32.611Z,9.30
2018-04-01T18:21:59.024Z,8.03
2018-04-01T18:24:25.555Z,7.60
2018-04-01T18:26:52.011Z,7.80
2018-04-01T18:29:18.420Z,8.67
2018-04-01T18:31:44.812Z,10.00
2018-04-01T18:34:11.193Z,9.27
2018-04-01T18:36:37.627Z,10.63
2018-04-01T18:39:04.001Z,9.70
2018-04-01T18:41:30.391Z,9.03
2018-04-01T18:43:56.798Z,8.30
2018-04-01T18:46:23.286Z,8.30
2018-04-01T18:48:49.662Z,11.40
2018-04-01T18:51:16.083Z,11.23
2018-04-01T18:53:42.452Z,7.47
2018-04-01T18:56:08.866Z,8.07
2018-04-01T18:58:35.236Z,8.57
2018-04-01T19:01:01.658Z,5.77
2018-04-01T19:03:28.031Z,8.27
2018-04-01T19:05:54.400Z,5.33
2018-04-01T19:08:21.421Z,7.83
2018-04-01T19:10:47.801Z,10.17
2018-04-01T19:13:14.191Z,7.23
2018-04-01T19:15:40.559Z,8.53
2018-04-01T19:18:06.940Z,6.63
2018-04-01T19:20:33.338Z,10.57
2018-04-01T19:22:59.705Z,10.30
2018-04-01T19:25:26.082Z,5.10
2018-04-01T19:27:52.477Z,7.20
2018-04-01T19:30:18.905Z,10.77
2018-04-01T19:32:45.343Z,6.50
2018-04-01T19:35:11.747Z,6.60
2018-04-01T19:37:38.122Z,8.10
2018-04-01T19:40:04.602Z,11.63
2018-04-01T19:42:30.966Z,7.70
2018-04-01T19:44:57.337Z,7.43
2018-04-01T19:47:23.840Z,8.03
2018-04-01T19:49:51.015Z,8.40
2018-04-01T19:52:17.387Z,5.73
2018-04-01T19:54:43.747Z,10.23
2018-04-01T19:57:10.176Z,5.40
2018-04-01T19:59:36.560Z,6.50
2018-04-01T20:02:03.003Z,7.27
2018-04-01T20:04:29.429Z,6.57
2018-04-01T20:06:55.827Z,4.37
2018-04-01T20:09:22.250Z,4.53
2018-04-01T20:11:48.683Z,6.43
2018-04-01T20:14:15.114Z,8.07
2018-04-01T20:16:41.503Z,6.70
2018-04-01T20:19:07.999Z,6.67
2018-04-01T20:21:34.362Z,7.57
2018-04-01T20:24:00.751Z,4.97
2018-04-01T20:26:27.154Z,6.70
2018-04-01T20:28:53.555Z,5.43
2018-04-01T20:31:20.026Z,4.87
2018-04-01T20:33:47.050Z,4.87
2018-04-01T20:36:13.542Z,6.23
2018-04-01T20:38:39.976Z,5.67
2018-04-01T20:41:06.354Z,4.40
2018-04-01T20:43:32.715Z,5.43
2018-04-01T20:45:59.345Z,12.33
2018-04-01T20:48:25.721Z,6.43
2018-04-01T20:50:52.079Z,4.87
2018-04-01T20:53:18.498Z,5.80
2018-04-01T20:55:44.865Z,10.43
2018-04-01T20:58:13.458Z,7.20
2018-04-01T21:00:39.820Z,6.97
2018-04-01T21:03:06.191Z,6.20
2018-04-01T21:05:32.592Z,4.40
2018-04-01T21:07:59.446Z,4.77
2018-04-01T21:10:25.861Z,3.50
2018-04-01T21:12:52.275Z,3.70
2018-04-01T21:15:18.658Z,3.53
2018-04-01T21:17:45.079Z,4.43
2018-04-01T21:20:11.540Z,3.30
2018-04-01T21:22:38.038Z,4.10
2018-04-01T21:25:04.424Z,4.43
2018-04-01T21:27:30.782Z,5.40
2018-04-01T21:29:57.203Z,4.07
2018-04-01T21:32:23.605Z,3.53
2018-04-01T21:34:49.997Z,4.07
2018-04-01T21:37:16.375Z,5.00
2018-04-01T21:39:42.807Z,4.43
2018-04-01T21:42:09.191Z,3.80
2018-04-01T21:44:35.631Z,4.80
2018-04-01T21:47:02.127Z,4.67
2018-04-01T21:49:28.595Z,4.87
2018-04-01T21:51:55.013Z,4.53
2018-04-01T21:54:21.378Z,4.50
2018-04-01T21:56:47.786Z,3.90
2018-04-01T21:59:14.200Z,4.13
2018-04-01T22:01:40.648Z,2.63
2018-04-01T22:04:07.081Z,4.83
2018-04-01T22:06:33.536Z,4.67
2018-04-01T22:09:00.106Z,3.20
2018-04-01T22:11:28.934Z,4.20
2018-04-01T22:13:55.292Z,3.13
2018-04-01T22:16:21.714Z,3.33
2018-04-01T22:18:48.099Z,3.70
2018-04-01T22:21:14.590Z,2.97
2018-04-01T22:23:41.070Z,3.53
2018-04-01T22:26:07.512Z,3.00
2018-04-01T22:28:33.973Z,6.73
2018-04-01T22:31:00.377Z,4.10
2018-04-01T22:33:26.908Z,4.07
2018-04-01T22:35:53.420Z,4.03
2018-04-01T22:38:19.835Z,3.10
2018-04-01T22:40:46.219Z,3.57
2018-04-01T22:43:12.774Z,3.83
2018-04-01T22:45:39.134Z,4.07
2018-04-01T22:48:05.560Z,2.90
2018-04-01T22:50:31.948Z,6.73
2018-04-01T22:52:58.398Z,2.80
2018-04-01T22:55:24.763Z,3.30
2018-04-01T22:57:51.187Z,4.17
2018-04-01T23:00:17.638Z,3.30
2018-04-01T23:02:44.152Z,3.97
2018-04-01T23:05:10.689Z,5.90
2018-04-01T23:07:37.866Z,3.60
2018-04-01T23:10:04.365Z,3.77
2018-04-01T23:12:30.750Z,3.20
2018-04-01T23:14:57.144Z,3.43
2018-04-01T23:17:23.883Z,3.37
2018-04-01T23:19:50.304Z,3.33
2018-04-01T23:22:16.802Z,5.20
2018-04-01T23:24:43.227Z,5.23
2018-04-01T23:27:09.642Z,3.27
2018-04-01T23:29:36.118Z,2.90
2018-04-01T23:32:02.684Z,3.20
2018-04-01T23:34:29.094Z,3.93
2018-04-01T23:36:55.583Z,3.10
2018-04-01T23:39:22.020Z,3.60
2018-04-01T23:41:48.447Z,3.90
2018-04-01T23:44:14.822Z,3.77
2018-04-01T23:46:41.243Z,3.67
2018-04-01T23:49:07.734Z,3.23
2018-04-01T23:51:34.113Z,3.20
2018-04-01T23:54:00.498Z,5.60
2018-04-01T23:56:26.975Z,3.30
2018-04-01T23:58:53.410Z,3.80
